Terminal Aerodrome Forecast
Issued by NWS

Home | Current Version | Previous Version | Text Only | Print | Product List | Glossary On
Versions: 1 2 3 4 5 6 7 8 9 10 11 12 13 14 15 16
000
FTUS46 KSGX 292339
TAFCRQ
TAF
KCRQ 292339Z 3000/3024 25009KT P6SM SKC
     FM300200 VRB04KT P6SM FEW006
      TEMPO 3003/3005 3SM BR BKN004
     FM300800 VRB03KT 6SM BR BKN006
     FM301500 VRB03KT P6SM SCT009
     FM302000 25009KT P6SM SKC=

USA.gov is the U.S. government's official web portal to all federal, state and local government web resources and services.